METAR Luftfahrt Wetterdaten     LSZH Zürich Airport
Temperatur
14°C Temperatur
8°C Taupunkt
67% Feuchtigkeit



Wind
11 KM/h
7 MPS
3 M/S
6 KTS



40°
NO
Aktuelle Wetterlage

Meistens bewölkt Meistens bewölkt
Luftdruck 1026.92 (hPa) - 30.32 (inHg)
Sichtweite 6.2 (Meile) - 10 (Km)
Flughafen
Flughafen Code LSZH

Position : Zürich Airport
Entfernung: 60 (Km)

Metar:
LSZH 031050Z 04006KT 360V070 9999 BKN030 14/08 Q1027 NOSIG

Zeit: 03-10-2022 12:50 CEST